sensor_id;sensor_type;location;lat;lon;timestamp;pressure;altitude;pressure_sealevel;temperature;humidity
74327;BME280;62745;51.060;13.786;2024-01-06T00:00:10;99018.72;;;3.45;100.00
74327;BME280;62745;51.060;13.786;2024-01-06T00:02:36;99011.41;;;3.32;100.00
74327;BME280;62745;51.060;13.786;2024-01-06T00:05:01;99016.50;;;3.33;100.00
74327;BME280;62745;51.060;13.786;2024-01-06T00:07:26;99024.25;;;3.35;100.00
74327;BME280;62745;51.060;13.786;2024-01-06T00:09:52;99022.19;;;3.22;100.00
74327;BME280;62745;51.060;13.786;2024-01-06T00:12:19;99028.03;;;3.10;100.00
74327;BME280;62745;51.060;13.786;2024-01-06T00:14:45;99027.44;;;2.99;100.00
74327;BME280;62745;51.060;13.786;2024-01-06T00:17:11;99028.91;;;3.02;100.00
74327;BME280;62745;51.060;13.786;2024-01-06T00:19:37;99032.25;;;3.19;100.00
74327;BME280;62745;51.060;13.786;2024-01-06T00:22:03;99030.75;;;3.24;100.00
74327;BME280;62745;51.060;13.786;2024-01-06T00:24:29;99032.59;;;3.24;100.00
74327;BME280;62745;51.060;13.786;2024-01-06T00:26:55;99029.88;;;3.32;100.00
74327;BME280;62745;51.060;13.786;2024-01-06T00:29:20;99040.06;;;3.12;100.00
74327;BME280;62745;51.060;13.786;2024-01-06T00:31:46;99038.97;;;2.98;100.00
74327;BME280;62745;51.060;13.786;2024-01-06T00:34:11;99040.94;;;2.74;100.00
74327;BME280;62745;51.060;13.786;2024-01-06T00:36:37;99043.75;;;2.72;100.00
74327;BME280;62745;51.060;13.786;2024-01-06T00:39:02;99045.22;;;2.75;100.00
74327;BME280;62745;51.060;13.786;2024-01-06T00:41:29;99048.41;;;2.93;100.00
74327;BME280;62745;51.060;13.786;2024-01-06T00:43:55;99052.41;;;2.89;100.00
74327;BME280;62745;51.060;13.786;2024-01-06T00:46:20;99049.28;;;3.16;100.00
74327;BME280;62745;51.060;13.786;2024-01-06T00:48:46;99050.59;;;3.43;100.00
74327;BME280;62745;51.060;13.786;2024-01-06T00:51:11;99062.56;;;3.00;100.00
74327;BME280;62745;51.060;13.786;2024-01-06T00:53:36;99055.72;;;2.83;100.00
74327;BME280;62745;51.060;13.786;2024-01-06T00:56:02;99063.38;;;2.69;100.00
74327;BME280;62745;51.060;13.786;2024-01-06T00:58:27;99060.47;;;2.48;100.00
74327;BME280;62745;51.060;13.786;2024-01-06T01:00:53;99065.44;;;2.35;100.00
74327;BME280;62745;51.060;13.786;2024-01-06T01:03:18;99065.28;;;2.36;100.00
74327;BME280;62745;51.060;13.786;2024-01-06T01:05:43;99073.38;;;2.27;100.00
74327;BME280;62745;51.060;13.786;2024-01-06T01:08:08;99068.28;;;2.25;100.00
74327;BME280;62745;51.060;13.786;2024-01-06T01:10:34;99069.44;;;2.23;100.00
74327;BME280;62745;51.060;13.786;2024-01-06T01:12:59;99066.47;;;2.26;100.00
74327;BME280;62745;51.060;13.786;2024-01-06T01:15:24;99060.03;;;2.28;100.00
74327;BME280;62745;51.060;13.786;2024-01-06T01:17:50;99060.50;;;2.40;100.00
74327;BME280;62745;51.060;13.786;2024-01-06T01:20:15;99065.59;;;2.41;100.00
74327;BME280;62745;51.060;13.786;2024-01-06T01:22:40;99061.28;;;2.57;100.00
74327;BME280;62745;51.060;13.786;2024-01-06T01:25:06;99064.84;;;2.64;100.00
74327;BME280;62745;51.060;13.786;2024-01-06T01:27:33;99065.91;;;2.47;100.00
74327;BME280;62745;51.060;13.786;2024-01-06T01:29:59;99065.44;;;2.35;100.00
74327;BME280;62745;51.060;13.786;2024-01-06T01:32:24;99060.63;;;2.47;100.00
74327;BME280;62745;51.060;13.786;2024-01-06T01:34:49;99061.50;;;2.31;100.00
74327;BME280;62745;51.060;13.786;2024-01-06T01:37:15;99068.13;;;2.19;100.00
74327;BME280;62745;51.060;13.786;2024-01-06T01:39:40;99063.50;;;2.13;100.00
74327;BME280;62745;51.060;13.786;2024-01-06T01:42:06;99064.16;;;2.15;100.00
74327;BME280;62745;51.060;13.786;2024-01-06T01:44:31;99060.88;;;2.13;100.00
74327;BME280;62745;51.060;13.786;2024-01-06T01:46:56;99067.59;;;2.31;100.00
74327;BME280;62745;51.060;13.786;2024-01-06T01:49:22;99068.56;;;2.38;100.00
74327;BME280;62745;51.060;13.786;2024-01-06T01:51:48;99072.34;;;2.44;100.00
74327;BME280;62745;51.060;13.786;2024-01-06T01:54:14;99071.03;;;2.40;100.00
74327;BME280;62745;51.060;13.786;2024-01-06T01:56:40;99070.88;;;2.41;100.00
74327;BME280;62745;51.060;13.786;2024-01-06T01:59:10;99066.78;;;2.23;100.00
74327;BME280;62745;51.060;13.786;2024-01-06T02:01:36;99060.22;;;2.10;100.00
74327;BME280;62745;51.060;13.786;2024-01-06T02:04:02;99056.63;;;2.03;100.00
74327;BME280;62745;51.060;13.786;2024-01-06T02:06:28;99068.47;;;1.99;100.00
74327;BME280;62745;51.060;13.786;2024-01-06T02:08:53;99064.19;;;1.90;100.00
74327;BME280;62745;51.060;13.786;2024-01-06T02:11:18;99075.06;;;1.95;100.00
74327;BME280;62745;51.060;13.786;2024-01-06T02:13:44;99085.25;;;1.98;100.00
74327;BME280;62745;51.060;13.786;2024-01-06T02:16:09;99061.91;;;2.03;100.00
74327;BME280;62745;51.060;13.786;2024-01-06T02:18:34;99066.66;;;2.08;100.00
74327;BME280;62745;51.060;13.786;2024-01-06T02:21:01;99071.91;;;2.00;100.00
74327;BME280;62745;51.060;13.786;2024-01-06T02:23:30;99072.22;;;2.21;100.00
74327;BME280;62745;51.060;13.786;2024-01-06T02:25:56;99072.84;;;2.31;100.00
74327;BME280;62745;51.060;13.786;2024-01-06T02:28:21;99069.91;;;2.26;100.00
74327;BME280;62745;51.060;13.786;2024-01-06T02:30:47;99072.72;;;2.17;100.00
74327;BME280;62745;51.060;13.786;2024-01-06T02:33:12;99063.69;;;2.19;100.00
74327;BME280;62745;51.060;13.786;2024-01-06T02:35:37;99077.00;;;2.01;100.00
74327;BME280;62745;51.060;13.786;2024-01-06T02:38:03;99069.28;;;1.84;100.00
74327;BME280;62745;51.060;13.786;2024-01-06T02:40:28;99070.56;;;2.28;100.00
74327;BME280;62745;51.060;13.786;2024-01-06T02:42:54;99080.81;;;2.07;100.00
74327;BME280;62745;51.060;13.786;2024-01-06T02:45:19;99069.47;;;1.90;100.00
74327;BME280;62745;51.060;13.786;2024-01-06T02:47:44;99068.59;;;2.22;100.00
74327;BME280;62745;51.060;13.786;2024-01-06T02:50:10;99081.63;;;2.07;100.00
74327;BME280;62745;51.060;13.786;2024-01-06T02:52:35;99083.59;;;2.22;100.00
74327;BME280;62745;51.060;13.786;2024-01-06T02:55:01;99084.59;;;2.21;100.00
74327;BME280;62745;51.060;13.786;2024-01-06T02:57:27;99081.44;;;2.17;100.00
74327;BME280;62745;51.060;13.786;2024-01-06T02:59:53;99080.50;;;1.94;100.00
74327;BME280;62745;51.060;13.786;2024-01-06T03:02:18;99094.50;;;1.86;100.00
74327;BME280;62745;51.060;13.786;2024-01-06T03:04:43;99095.44;;;2.01;100.00
74327;BME280;62745;51.060;13.786;2024-01-06T03:07:09;99087.72;;;1.84;100.00
74327;BME280;62745;51.060;13.786;2024-01-06T03:09:34;99087.91;;;1.90;100.00
74327;BME280;62745;51.060;13.786;2024-01-06T03:11:59;99095.31;;;1.95;100.00
74327;BME280;62745;51.060;13.786;2024-01-06T03:14:25;99102.72;;;2.07;100.00
74327;BME280;62745;51.060;13.786;2024-01-06T03:16:50;99104.69;;;1.89;100.00
74327;BME280;62745;51.060;13.786;2024-01-06T03:19:15;99104.69;;;1.97;100.00
74327;BME280;62745;51.060;13.786;2024-01-06T03:21:40;99099.25;;;1.91;100.00
74327;BME280;62745;51.060;13.786;2024-01-06T03:24:07;99101.69;;;1.68;100.00
74327;BME280;62745;51.060;13.786;2024-01-06T03:26:33;99108.47;;;1.54;100.00
74327;BME280;62745;51.060;13.786;2024-01-06T03:28:59;99107.31;;;1.89;100.00
74327;BME280;62745;51.060;13.786;2024-01-06T03:31:24;99104.03;;;2.03;100.00
74327;BME280;62745;51.060;13.786;2024-01-06T03:33:49;99106.16;;;2.00;100.00
74327;BME280;62745;51.060;13.786;2024-01-06T03:36:15;99107.31;;;1.81;100.00
74327;BME280;62745;51.060;13.786;2024-01-06T03:38:41;99109.78;;;1.74;100.00
74327;BME280;62745;51.060;13.786;2024-01-06T03:41:07;99112.09;;;1.94;100.00
74327;BME280;62745;51.060;13.786;2024-01-06T03:43:32;99119.16;;;1.93;100.00
74327;BME280;62745;51.060;13.786;2024-01-06T03:45:57;99110.91;;;1.64;100.00
74327;BME280;62745;51.060;13.786;2024-01-06T03:48:25;99112.59;;;1.73;100.00
74327;BME280;62745;51.060;13.786;2024-01-06T03:50:50;99116.03;;;1.73;100.00
74327;BME280;62745;51.060;13.786;2024-01-06T03:53:16;99113.72;;;1.54;100.00
74327;BME280;62745;51.060;13.786;2024-01-06T03:55:41;99120.75;;;1.45;100.00
74327;BME280;62745;51.060;13.786;2024-01-06T03:58:06;99113.84;;;1.36;100.00
74327;BME280;62745;51.060;13.786;2024-01-06T04:00:32;99119.94;;;1.45;100.00
74327;BME280;62745;51.060;13.786;2024-01-06T04:02:57;99120.75;;;1.37;100.00
74327;BME280;62745;51.060;13.786;2024-01-06T04:05:22;99111.88;;;1.38;100.00
74327;BME280;62745;51.060;13.786;2024-01-06T04:07:47;99109.53;;;1.27;100.00
74327;BME280;62745;51.060;13.786;2024-01-06T04:10:13;99110.19;;;1.21;100.00
74327;BME280;62745;51.060;13.786;2024-01-06T04:12:38;99120.84;;;1.11;100.00
74327;BME280;62745;51.060;13.786;2024-01-06T04:15:03;99118.09;;;1.29;100.00
74327;BME280;62745;51.060;13.786;2024-01-06T04:17:29;99124.00;;;1.31;100.00
74327;BME280;62745;51.060;13.786;2024-01-06T04:19:55;99126.69;;;1.39;100.00
74327;BME280;62745;51.060;13.786;2024-01-06T04:22:20;99122.25;;;1.48;100.00
74327;BME280;62745;51.060;13.786;2024-01-06T04:24:45;99115.53;;;1.54;100.00
74327;BME280;62745;51.060;13.786;2024-01-06T04:27:10;99116.53;;;1.69;100.00
74327;BME280;62745;51.060;13.786;2024-01-06T04:29:36;99119.16;;;1.61;100.00
74327;BME280;62745;51.060;13.786;2024-01-06T04:32:02;99121.63;;;1.54;100.00
74327;BME280;62745;51.060;13.786;2024-01-06T04:34:27;99119.56;;;1.32;100.00
74327;BME280;62745;51.060;13.786;2024-01-06T04:36:52;99113.31;;;1.33;100.00
74327;BME280;62745;51.060;13.786;2024-01-06T04:39:18;99121.22;;;1.25;100.00
74327;BME280;62745;51.060;13.786;2024-01-06T04:41:43;99119.50;;;1.07;100.00
74327;BME280;62745;51.060;13.786;2024-01-06T04:44:08;99129.59;;;1.20;100.00
74327;BME280;62745;51.060;13.786;2024-01-06T04:46:33;99132.28;;;1.44;100.00
74327;BME280;62745;51.060;13.786;2024-01-06T04:48:59;99132.28;;;1.44;100.00
74327;BME280;62745;51.060;13.786;2024-01-06T04:51:24;99136.84;;;1.34;100.00
74327;BME280;62745;51.060;13.786;2024-01-06T04:53:49;99129.50;;;1.54;100.00
74327;BME280;62745;51.060;13.786;2024-01-06T04:56:15;99138.25;;;1.95;100.00
74327;BME280;62745;51.060;13.786;2024-01-06T04:58:40;99136.41;;;1.63;100.00
74327;BME280;62745;51.060;13.786;2024-01-06T05:01:06;99139.72;;;1.65;100.00
74327;BME280;62745;51.060;13.786;2024-01-06T05:03:31;99137.72;;;1.67;100.00
74327;BME280;62745;51.060;13.786;2024-01-06T05:05:57;99142.84;;;2.01;100.00
74327;BME280;62745;51.060;13.786;2024-01-06T05:08:22;99142.06;;;1.93;100.00
74327;BME280;62745;51.060;13.786;2024-01-06T05:10:52;99145.19;;;1.88;100.00
74327;BME280;62745;51.060;13.786;2024-01-06T05:13:18;99153.88;;;1.80;100.00
74327;BME280;62745;51.060;13.786;2024-01-06T05:15:43;99152.06;;;1.73;100.00
74327;BME280;62745;51.060;13.786;2024-01-06T05:18:09;99147.63;;;1.73;100.00
74327;BME280;62745;51.060;13.786;2024-01-06T05:20:34;99152.41;;;1.78;100.00
74327;BME280;62745;51.060;13.786;2024-01-06T05:22:59;99158.00;;;1.75;100.00
74327;BME280;62745;51.060;13.786;2024-01-06T05:25:25;99159.19;;;2.05;100.00
74327;BME280;62745;51.060;13.786;2024-01-06T05:27:50;99158.50;;;2.35;100.00
74327;BME280;62745;51.060;13.786;2024-01-06T05:30:15;99149.72;;;2.51;100.00
74327;BME280;62745;51.060;13.786;2024-01-06T05:32:40;99154.50;;;2.72;100.00
74327;BME280;62745;51.060;13.786;2024-01-06T05:35:06;99160.44;;;2.50;100.00
74327;BME280;62745;51.060;13.786;2024-01-06T05:37:32;99157.03;;;2.25;100.00
74327;BME280;62745;51.060;13.786;2024-01-06T05:39:57;99165.28;;;2.22;100.00
74327;BME280;62745;51.060;13.786;2024-01-06T05:42:26;99172.94;;;2.64;100.00
74327;BME280;62745;51.060;13.786;2024-01-06T05:44:51;99169.22;;;2.97;100.00
74327;BME280;62745;51.060;13.786;2024-01-06T05:47:17;99174.56;;;2.89;100.00
74327;BME280;62745;51.060;13.786;2024-01-06T05:49:42;99162.22;;;2.65;100.00
74327;BME280;62745;51.060;13.786;2024-01-06T05:52:09;99176.38;;;2.81;100.00
74327;BME280;62745;51.060;13.786;2024-01-06T05:54:34;99181.47;;;2.90;100.00
74327;BME280;62745;51.060;13.786;2024-01-06T05:57:00;99189.75;;;2.71;100.00
74327;BME280;62745;51.060;13.786;2024-01-06T05:59:25;99202.94;;;2.63;100.00
74327;BME280;62745;51.060;13.786;2024-01-06T06:01:50;99192.09;;;2.41;100.00
74327;BME280;62745;51.060;13.786;2024-01-06T06:04:17;99203.44;;;2.75;100.00
74327;BME280;62745;51.060;13.786;2024-01-06T06:06:44;99204.38;;;2.82;100.00
74327;BME280;62745;51.060;13.786;2024-01-06T06:09:09;99212.25;;;3.06;100.00
74327;BME280;62745;51.060;13.786;2024-01-06T06:11:35;99208.03;;;2.89;100.00
74327;BME280;62745;51.060;13.786;2024-01-06T06:14:01;99224.88;;;2.71;100.00
74327;BME280;62745;51.060;13.786;2024-01-06T06:16:28;99215.97;;;2.64;100.00
74327;BME280;62745;51.060;13.786;2024-01-06T06:18:53;99220.75;;;2.61;100.00
74327;BME280;62745;51.060;13.786;2024-01-06T06:21:19;99229.66;;;2.60;100.00
74327;BME280;62745;51.060;13.786;2024-01-06T06:23:45;99235.09;;;2.58;100.00
74327;BME280;62745;51.060;13.786;2024-01-06T06:26:10;99232.22;;;2.84;100.00
74327;BME280;62745;51.060;13.786;2024-01-06T06:28:37;99238.03;;;2.71;100.00
74327;BME280;62745;51.060;13.786;2024-01-06T06:31:03;99236.72;;;2.59;100.00
74327;BME280;62745;51.060;13.786;2024-01-06T06:33:28;99223.72;;;2.58;100.00
74327;BME280;62745;51.060;13.786;2024-01-06T06:35:54;99249.22;;;2.82;100.00
74327;BME280;62745;51.060;13.786;2024-01-06T06:38:19;99242.63;;;2.94;100.00
74327;BME280;62745;51.060;13.786;2024-01-06T06:40:46;99240.31;;;2.83;100.00
74327;BME280;62745;51.060;13.786;2024-01-06T06:43:13;99236.84;;;2.82;100.00
74327;BME280;62745;51.060;13.786;2024-01-06T06:45:38;99253.34;;;2.92;100.00
74327;BME280;62745;51.060;13.786;2024-01-06T06:48:04;99255.16;;;2.92;100.00
74327;BME280;62745;51.060;13.786;2024-01-06T06:50:29;99258.94;;;2.97;100.00
74327;BME280;62745;51.060;13.786;2024-01-06T06:52:54;99261.91;;;2.94;100.00
74327;BME280;62745;51.060;13.786;2024-01-06T06:55:20;99268.50;;;2.90;100.00
74327;BME280;62745;51.060;13.786;2024-01-06T06:57:45;99270.63;;;2.95;100.00
74327;BME280;62745;51.060;13.786;2024-01-06T07:00:10;99276.41;;;3.07;100.00
74327;BME280;62745;51.060;13.786;2024-01-06T07:02:39;99268.94;;;3.18;100.00
74327;BME280;62745;51.060;13.786;2024-01-06T07:05:05;99271.13;;;3.07;100.00
74327;BME280;62745;51.060;13.786;2024-01-06T07:07:32;99284.47;;;3.05;100.00
74327;BME280;62745;51.060;13.786;2024-01-06T07:09:58;99282.31;;;3.09;100.00
74327;BME280;62745;51.060;13.786;2024-01-06T07:12:25;99283.31;;;3.08;100.00
74327;BME280;62745;51.060;13.786;2024-01-06T07:14:50;99287.09;;;3.21;100.00
74327;BME280;62745;51.060;13.786;2024-01-06T07:17:16;99297.97;;;3.26;100.00
74327;BME280;62745;51.060;13.786;2024-01-06T07:19:41;99302.03;;;3.53;100.00
74327;BME280;62745;51.060;13.786;2024-01-06T07:22:06;99300.03;;;3.47;100.00
74327;BME280;62745;51.060;13.786;2024-01-06T07:24:31;99294.41;;;3.50;100.00
74327;BME280;62745;51.060;13.786;2024-01-06T07:26:57;99294.78;;;3.39;100.00
74327;BME280;62745;51.060;13.786;2024-01-06T07:29:22;99304.31;;;3.56;100.00
74327;BME280;62745;51.060;13.786;2024-01-06T07:31:47;99313.19;;;3.72;100.00
74327;BME280;62745;51.060;13.786;2024-01-06T07:34:13;99315.66;;;3.65;100.00
74327;BME280;62745;51.060;13.786;2024-01-06T07:36:38;99328.38;;;3.61;100.00
74327;BME280;62745;51.060;13.786;2024-01-06T07:39:04;99325.91;;;3.60;100.00
74327;BME280;62745;51.060;13.786;2024-01-06T07:41:31;99323.09;;;3.61;100.00
74327;BME280;62745;51.060;13.786;2024-01-06T07:43:57;99326.88;;;3.67;100.00
74327;BME280;62745;51.060;13.786;2024-01-06T07:46:25;99325.72;;;3.70;100.00
74327;BME280;62745;51.060;13.786;2024-01-06T07:48:50;99323.28;;;3.60;100.00
74327;BME280;62745;51.060;13.786;2024-01-06T07:51:15;99323.41;;;3.67;100.00
74327;BME280;62745;51.060;13.786;2024-01-06T07:53:41;99320.91;;;3.73;100.00
74327;BME280;62745;51.060;13.786;2024-01-06T07:56:07;99323.75;;;3.72;100.00
74327;BME280;62745;51.060;13.786;2024-01-06T07:58:32;99325.06;;;3.68;100.00
74327;BME280;62745;51.060;13.786;2024-01-06T08:00:58;99327.97;;;3.81;100.00
74327;BME280;62745;51.060;13.786;2024-01-06T08:03:23;99323.69;;;3.80;100.00
74327;BME280;62745;51.060;13.786;2024-01-06T08:05:48;99329.69;;;3.66;100.00
74327;BME280;62745;51.060;13.786;2024-01-06T08:08:14;99340.19;;;3.82;100.00
74327;BME280;62745;51.060;13.786;2024-01-06T08:10:42;99348.53;;;4.02;100.00
74327;BME280;62745;51.060;13.786;2024-01-06T08:13:07;99347.09;;;3.91;100.00
74327;BME280;62745;51.060;13.786;2024-01-06T08:15:32;99353.97;;;4.00;100.00
74327;BME280;62745;51.060;13.786;2024-01-06T08:17:58;99356.06;;;4.13;100.00
74327;BME280;62745;51.060;13.786;2024-01-06T08:20:23;99359.78;;;4.04;100.00
74327;BME280;62745;51.060;13.786;2024-01-06T08:22:51;99356.78;;;4.07;100.00
74327;BME280;62745;51.060;13.786;2024-01-06T08:25:16;99360.38;;;4.14;100.00
74327;BME280;62745;51.060;13.786;2024-01-06T08:27:43;99360.00;;;4.17;100.00
74327;BME280;62745;51.060;13.786;2024-01-06T08:30:09;99366.03;;;4.34;100.00
74327;BME280;62745;51.060;13.786;2024-01-06T08:32:34;99370.88;;;4.53;100.00
74327;BME280;62745;51.060;13.786;2024-01-06T08:35:00;99372.41;;;4.47;100.00
74327;BME280;62745;51.060;13.786;2024-01-06T08:37:25;99376.88;;;4.47;100.00
74327;BME280;62745;51.060;13.786;2024-01-06T08:39:50;99368.13;;;4.46;100.00
74327;BME280;62745;51.060;13.786;2024-01-06T08:42:16;99377.31;;;4.81;100.00
74327;BME280;62745;51.060;13.786;2024-01-06T08:44:41;99373.59;;;4.68;100.00
74327;BME280;62745;51.060;13.786;2024-01-06T08:47:08;99384.06;;;4.61;100.00
74327;BME280;62745;51.060;13.786;2024-01-06T08:49:34;99388.38;;;4.62;100.00
74327;BME280;62745;51.060;13.786;2024-01-06T08:51:59;99381.13;;;4.79;100.00
74327;BME280;62745;51.060;13.786;2024-01-06T08:54:24;99380.38;;;4.93;100.00
74327;BME280;62745;51.060;13.786;2024-01-06T08:56:50;99395.91;;;4.96;100.00
74327;BME280;62745;51.060;13.786;2024-01-06T08:59:15;99396.81;;;5.03;100.00
74327;BME280;62745;51.060;13.786;2024-01-06T09:01:40;99396.31;;;5.08;100.00
74327;BME280;62745;51.060;13.786;2024-01-06T09:04:06;99399.13;;;4.83;100.00
74327;BME280;62745;51.060;13.786;2024-01-06T09:06:32;99402.03;;;4.74;100.00
74327;BME280;62745;51.060;13.786;2024-01-06T09:08:57;99413.06;;;4.77;100.00
74327;BME280;62745;51.060;13.786;2024-01-06T09:11:22;99412.16;;;4.62;100.00
74327;BME280;62745;51.060;13.786;2024-01-06T09:13:47;99409.03;;;4.90;100.00
74327;BME280;62745;51.060;13.786;2024-01-06T09:16:13;99414.59;;;4.95;100.00
74327;BME280;62745;51.060;13.786;2024-01-06T09:18:38;99411.97;;;4.95;100.00
74327;BME280;62745;51.060;13.786;2024-01-06T09:21:04;99416.31;;;5.10;100.00
74327;BME280;62745;51.060;13.786;2024-01-06T09:23:30;99420.34;;;4.98;100.00
74327;BME280;62745;51.060;13.786;2024-01-06T09:25:57;99430.81;;;5.14;100.00
74327;BME280;62745;51.060;13.786;2024-01-06T09:28:23;99423.53;;;5.17;100.00
74327;BME280;62745;51.060;13.786;2024-01-06T09:30:48;99434.06;;;5.25;100.00
74327;BME280;62745;51.060;13.786;2024-01-06T09:33:14;99433.28;;;5.39;100.00
74327;BME280;62745;51.060;13.786;2024-01-06T09:35:42;99428.19;;;5.52;100.00
74327;BME280;62745;51.060;13.786;2024-01-06T09:38:09;99431.22;;;5.64;100.00
74327;BME280;62745;51.060;13.786;2024-01-06T09:40:35;99427.56;;;5.65;100.00
74327;BME280;62745;51.060;13.786;2024-01-06T09:43:00;99427.69;;;5.71;100.00
74327;BME280;62745;51.060;13.786;2024-01-06T09:45:28;99432.69;;;5.66;100.00
74327;BME280;62745;51.060;13.786;2024-01-06T09:47:54;99433.00;;;5.71;100.00
74327;BME280;62745;51.060;13.786;2024-01-06T09:50:23;99432.00;;;5.72;100.00
74327;BME280;62745;51.060;13.786;2024-01-06T09:52:48;99431.06;;;5.80;100.00
74327;BME280;62745;51.060;13.786;2024-01-06T09:55:29;99435.72;;;5.78;100.00
74327;BME280;62745;51.060;13.786;2024-01-06T09:57:54;99432.31;;;5.92;100.00
74327;BME280;62745;51.060;13.786;2024-01-06T10:00:20;99432.72;;;5.81;100.00
74327;BME280;62745;51.060;13.786;2024-01-06T10:02:47;99433.72;;;5.80;100.00
74327;BME280;62745;51.060;13.786;2024-01-06T10:05:13;99441.50;;;5.82;100.00
74327;BME280;62745;51.060;13.786;2024-01-06T10:07:41;99419.09;;;5.84;100.00
74327;BME280;62745;51.060;13.786;2024-01-06T10:10:09;99429.38;;;6.17;100.00
74327;BME280;62745;51.060;13.786;2024-01-06T10:12:37;99427.28;;;6.27;100.00
74327;BME280;62745;51.060;13.786;2024-01-06T10:15:03;99434.72;;;6.38;100.00
74327;BME280;62745;51.060;13.786;2024-01-06T10:17:29;99435.78;;;6.22;100.00
74327;BME280;62745;51.060;13.786;2024-01-06T10:19:54;99425.19;;;6.22;100.00
74327;BME280;62745;51.060;13.786;2024-01-06T10:22:19;99427.16;;;6.20;100.00
74327;BME280;62745;51.060;13.786;2024-01-06T10:24:45;99427.16;;;6.35;100.00
74327;BME280;62745;51.060;13.786;2024-01-06T10:27:11;99419.44;;;6.55;100.00
74327;BME280;62745;51.060;13.786;2024-01-06T10:29:37;99414.59;;;6.58;100.00
74327;BME280;62745;51.060;13.786;2024-01-06T10:32:02;99423.50;;;6.21;100.00
74327;BME280;62745;51.060;13.786;2024-01-06T10:34:28;99432.84;;;6.17;100.00
74327;BME280;62745;51.060;13.786;2024-01-06T10:36:54;99427.88;;;6.44;100.00
74327;BME280;62745;51.060;13.786;2024-01-06T10:39:20;99428.06;;;6.57;100.00
74327;BME280;62745;51.060;13.786;2024-01-06T10:41:48;99425.28;;;6.65;100.00
74327;BME280;62745;51.060;13.786;2024-01-06T10:44:14;99423.53;;;6.93;100.00
74327;BME280;62745;51.060;13.786;2024-01-06T10:46:44;99422.53;;;6.73;100.00
74327;BME280;62745;51.060;13.786;2024-01-06T10:49:10;99413.22;;;7.05;100.00
74327;BME280;62745;51.060;13.786;2024-01-06T10:51:37;99416.41;;;6.94;100.00
74327;BME280;62745;51.060;13.786;2024-01-06T10:54:03;99414.75;;;7.14;100.00
74327;BME280;62745;51.060;13.786;2024-01-06T10:56:29;99414.88;;;7.28;100.00
74327;BME280;62745;51.060;13.786;2024-01-06T10:58:56;99421.88;;;7.35;100.00
74327;BME280;62745;51.060;13.786;2024-01-06T11:01:23;99412.97;;;7.43;100.00
74327;BME280;62745;51.060;13.786;2024-01-06T11:03:50;99416.81;;;7.40;99.84
74327;BME280;62745;51.060;13.786;2024-01-06T11:06:17;99416.44;;;7.22;99.90
74327;BME280;62745;51.060;13.786;2024-01-06T11:12:00;99420.13;;;7.00;100.00
74327;BME280;62745;51.060;13.786;2024-01-06T11:14:27;99417.72;;;7.05;100.00
74327;BME280;62745;51.060;13.786;2024-01-06T11:16:59;99416.81;;;6.76;100.00
74327;BME280;62745;51.060;13.786;2024-01-06T11:22:31;99427.25;;;6.99;100.00
74327;BME280;62745;51.060;13.786;2024-01-06T11:25:06;99434.47;;;6.33;100.00
74327;BME280;62745;51.060;13.786;2024-01-06T11:27:32;99422.88;;;6.70;100.00
74327;BME280;62745;51.060;13.786;2024-01-06T11:29:59;99431.59;;;6.64;100.00
74327;BME280;62745;51.060;13.786;2024-01-06T11:32:33;99424.75;;;6.91;100.00
74327;BME280;62745;51.060;13.786;2024-01-06T11:35:12;99430.06;;;6.91;100.00
74327;BME280;62745;51.060;13.786;2024-01-06T11:42:45;99431.09;;;6.39;100.00
74327;BME280;62745;51.060;13.786;2024-01-06T11:45:10;99438.31;;;6.45;100.00
74327;BME280;62745;51.060;13.786;2024-01-06T11:47:36;99433.69;;;6.54;100.00
74327;BME280;62745;51.060;13.786;2024-01-06T11:50:03;99435.28;;;6.84;100.00
74327;BME280;62745;51.060;13.786;2024-01-06T11:52:30;99430.50;;;7.16;100.00
74327;BME280;62745;51.060;13.786;2024-01-06T11:54:56;99422.88;;;7.34;100.00
74327;BME280;62745;51.060;13.786;2024-01-06T11:57:21;99434.84;;;7.02;100.00
74327;BME280;62745;51.060;13.786;2024-01-06T11:59:48;99431.88;;;6.90;100.00
74327;BME280;62745;51.060;13.786;2024-01-06T12:02:13;99428.56;;;6.88;100.00
74327;BME280;62745;51.060;13.786;2024-01-06T12:04:39;99426.53;;;6.69;100.00
74327;BME280;62745;51.060;13.786;2024-01-06T12:07:08;99431.66;;;6.20;100.00
74327;BME280;62745;51.060;13.786;2024-01-06T12:09:34;99436.41;;;6.24;100.00
74327;BME280;62745;51.060;13.786;2024-01-06T12:12:02;99428.16;;;6.19;100.00
74327;BME280;62745;51.060;13.786;2024-01-06T12:14:27;99441.91;;;6.23;100.00
74327;BME280;62745;51.060;13.786;2024-01-06T12:16:52;99444.63;;;6.44;100.00
74327;BME280;62745;51.060;13.786;2024-01-06T12:19:18;99438.59;;;6.36;100.00
74327;BME280;62745;51.060;13.786;2024-01-06T12:21:44;99446.84;;;6.26;100.00
74327;BME280;62745;51.060;13.786;2024-01-06T12:24:19;99454.03;;;6.47;100.00
74327;BME280;62745;51.060;13.786;2024-01-06T12:26:46;99456.31;;;6.50;100.00
74327;BME280;62745;51.060;13.786;2024-01-06T12:29:14;99446.16;;;6.53;100.00
74327;BME280;62745;51.060;13.786;2024-01-06T12:31:40;99453.81;;;6.78;100.00
74327;BME280;62745;51.060;13.786;2024-01-06T12:34:06;99454.44;;;6.80;100.00
74327;BME280;62745;51.060;13.786;2024-01-06T12:36:38;99449.88;;;6.74;100.00
74327;BME280;62745;51.060;13.786;2024-01-06T12:39:04;99456.31;;;6.50;100.00
74327;BME280;62745;51.060;13.786;2024-01-06T12:41:30;99453.88;;;6.33;100.00
74327;BME280;62745;51.060;13.786;2024-01-06T12:43:59;99455.16;;;6.23;100.00
74327;BME280;62745;51.060;13.786;2024-01-06T12:46:24;99452.41;;;6.01;100.00
74327;BME280;62745;51.060;13.786;2024-01-06T12:48:49;99450.06;;;6.07;100.00
74327;BME280;62745;51.060;13.786;2024-01-06T12:51:14;99452.59;;;6.15;100.00
74327;BME280;62745;51.060;13.786;2024-01-06T12:53:40;99464.56;;;6.11;100.00